Alto, Michigan
Current Conditions -  °F | °C
As of 10:53 PM on Friday 24 Oct 2014 (Local Time) from KGRR Reporting Station
Haze Haze  
Wind Chill: 42°   Ceiling: Unl
Heat Index: 45°   Visibility: 3mi
Dew Point: 44°   Wind: 6mph
Humidity: 97%   Direction: 160°SSE
Pressure: 29.95"   Gusts: NA
Location:  42.86°N, 85.38°W
Report Text: KGRR 250253Z 16005KT 3SM R26L/2600VP6000FT BR CLR 07/07 A2995 RMK AO2 SLP144 T00720067 58010
Loading
Personal Weather Stations






























Interactive Weather Map
Tropical Storm Tracking
New forecast layout! Learn more

10-Day Weather Forecast

Advertisements
Track Severe Weather on mobile